Time;durP1;ratioP1;P1;durP2;ratioP2;P2;SDS_P1;SDS_P2;PMS_P1;PMS_P2;Temp;Humidity;BMP_temperature;BMP_pressure;BME280_temperature;BME280_humidity;BME280_pressure;Samples;Min_cycle;Max_cycle;Signal;HPM_P1;HPM_P2
2023/12/06 00:00:11;;;;;;;53.72;21.92;;;1.80;99.90;;;;;;4993155;28;20046;-68
2023/12/06 00:02:36;;;;;;;48.55;21.35;;;1.80;99.90;;;;;;4993207;28;20039;-69
2023/12/06 00:05:02;;;;;;;47.33;21.40;;;1.80;99.90;;;;;;4992598;28;20039;-68
2023/12/06 00:07:28;;;;;;;47.47;21.73;;;1.80;99.90;;;;;;4993499;28;20030;-70
2023/12/06 00:09:58;;;;;;;53.80;20.88;;;1.80;99.90;;;;;;4993403;28;20123;-68
2023/12/06 00:12:24;;;;;;;47.97;20.10;;;1.80;99.90;;;;;;4992768;28;20018;-69
2023/12/06 00:14:49;;;;;;;50.80;20.70;;;1.80;99.90;;;;;;4993288;28;20027;-69
2023/12/06 00:17:15;;;;;;;52.50;22.00;;;1.80;99.90;;;;;;4993536;28;20065;-68
2023/12/06 00:19:40;;;;;;;51.35;22.08;;;1.80;99.90;;;;;;4992926;28;20101;-68
2023/12/06 00:22:09;;;;;;;54.50;21.13;;;1.80;99.90;;;;;;4992332;28;20399;-67
2023/12/06 00:24:35;;;;;;;46.97;20.13;;;1.80;99.90;;;;;;4992880;28;20057;-67
2023/12/06 00:27:00;;;;;;;53.53;21.70;;;1.80;99.90;;;;;;4992807;28;20050;-68
2023/12/06 00:29:26;;;;;;;45.55;21.00;;;1.80;99.90;;;;;;4991832;28;20029;-68
2023/12/06 00:31:51;;;;;;;48.30;20.67;;;1.80;99.90;;;;;;4993015;28;20409;-67
2023/12/06 00:34:17;;;;;;;53.35;21.10;;;1.80;99.90;;;;;;4992779;28;20030;-68
2023/12/06 00:36:42;;;;;;;48.25;21.25;;;1.80;99.90;;;;;;4992367;28;20037;-66
2023/12/06 00:39:13;;;;;;;49.25;21.20;;;1.80;99.90;;;;;;4992494;28;20830;-66
2023/12/06 00:41:39;;;;;;;54.20;21.98;;;1.80;99.90;;;;;;4991262;28;20038;-69
2023/12/06 00:44:05;;;;;;;50.33;21.02;;;1.80;99.90;;;;;;4992884;28;20026;-66
2023/12/06 00:46:30;;;;;;;49.55;21.20;;;1.80;99.90;;;;;;4992471;28;20108;-67
2023/12/06 00:48:58;;;;;;;45.85;20.38;;;1.80;99.90;;;;;;4990891;28;20042;-68
2023/12/06 00:51:24;;;;;;;47.38;20.67;;;1.90;99.90;;;;;;4993395;28;20030;-69
2023/12/06 00:53:50;;;;;;;47.25;20.92;;;1.90;99.90;;;;;;4993331;28;20023;-67
2023/12/06 00:56:15;;;;;;;53.45;21.50;;;1.80;99.90;;;;;;4989680;28;20030;-67
2023/12/06 00:58:44;;;;;;;52.55;21.92;;;1.80;99.90;;;;;;5007275;28;20030;-69
2023/12/06 01:01:11;;;;;;;50.22;20.83;;;1.80;99.90;;;;;;4992185;28;20015;-67
2023/12/06 01:03:38;;;;;;;47.42;20.15;;;1.80;99.90;;;;;;4992639;28;20022;-68
2023/12/06 01:06:03;;;;;;;48.00;20.55;;;1.80;99.90;;;;;;4993262;28;20047;-67
2023/12/06 01:08:29;;;;;;;48.83;21.20;;;1.80;99.90;;;;;;4991925;28;20095;-67
2023/12/06 01:10:55;;;;;;;52.63;21.25;;;1.80;99.90;;;;;;4993007;28;20130;-67
2023/12/06 01:13:20;;;;;;;52.42;22.33;;;1.90;99.90;;;;;;4993019;28;20027;-68
2023/12/06 01:15:46;;;;;;;48.50;20.92;;;1.90;99.90;;;;;;4993028;28;20045;-67
2023/12/06 01:18:12;;;;;;;56.15;21.98;;;1.90;99.90;;;;;;4992676;28;20054;-68
2023/12/06 01:20:38;;;;;;;51.40;21.85;;;1.90;99.90;;;;;;4992638;28;20030;-67
2023/12/06 01:23:04;;;;;;;54.95;22.25;;;1.80;99.90;;;;;;4992559;28;20476;-68
2023/12/06 01:25:32;;;;;;;53.35;22.15;;;1.80;99.90;;;;;;4992004;28;20042;-68
2023/12/06 01:27:58;;;;;;;54.28;21.60;;;1.80;99.90;;;;;;4990854;28;20042;-68
2023/12/06 01:30:24;;;;;;;55.33;21.88;;;1.80;99.90;;;;;;4991579;28;20039;-68
2023/12/06 01:32:50;;;;;;;57.28;22.38;;;1.80;99.90;;;;;;4991566;28;20042;-68
2023/12/06 01:35:15;;;;;;;48.65;20.30;;;1.80;99.90;;;;;;4992299;28;20093;-67
2023/12/06 01:37:41;;;;;;;54.17;22.27;;;1.80;99.90;;;;;;4992521;28;20031;-67
2023/12/06 01:40:08;;;;;;;54.15;22.65;;;1.80;99.90;;;;;;4991321;28;20510;-68
2023/12/06 01:42:34;;;;;;;51.42;20.65;;;1.80;99.90;;;;;;4989898;28;20050;-67
2023/12/06 01:45:00;;;;;;;51.00;21.88;;;1.80;99.90;;;;;;4990530;28;20092;-68
2023/12/06 01:47:27;;;;;;;48.58;21.02;;;1.80;99.90;;;;;;4991018;28;20019;-68
2023/12/06 01:49:56;;;;;;;46.65;19.88;;;1.90;99.90;;;;;;4992450;28;20025;-68
2023/12/06 01:52:22;;;;;;;50.33;20.42;;;1.90;99.90;;;;;;4991997;28;20023;-67
2023/12/06 01:54:49;;;;;;;46.08;20.45;;;1.80;99.90;;;;;;4991326;28;20077;-68
2023/12/06 01:57:16;;;;;;;47.67;20.00;;;1.80;99.90;;;;;;4992283;28;20545;-67
2023/12/06 01:59:43;;;;;;;46.58;19.75;;;1.90;99.90;;;;;;4991193;28;20113;-69
2023/12/06 02:02:09;;;;;;;47.40;19.38;;;1.80;99.90;;;;;;4991853;28;20124;-69
2023/12/06 02:04:36;;;;;;;48.20;20.58;;;1.90;99.90;;;;;;4990660;28;20053;-69
2023/12/06 02:07:02;;;;;;;46.03;19.55;;;1.80;99.90;;;;;;4991613;28;20066;-69
2023/12/06 02:09:28;;;;;;;45.85;19.60;;;1.90;99.90;;;;;;4991672;28;20030;-69
2023/12/06 02:11:53;;;;;;;46.17;20.02;;;1.90;99.90;;;;;;4991240;28;20031;-70
2023/12/06 02:14:19;;;;;;;49.08;20.02;;;1.90;99.90;;;;;;4991472;28;20046;-69
2023/12/06 02:16:46;;;;;;;45.53;19.20;;;1.80;99.90;;;;;;4991604;28;20029;-69
2023/12/06 02:19:17;;;;;;;47.53;19.92;;;1.90;99.90;;;;;;4991033;28;20026;-69
2023/12/06 02:21:44;;;;;;;46.35;19.25;;;1.90;99.90;;;;;;4992049;28;20434;-69
2023/12/06 02:24:12;;;;;;;45.58;18.85;;;1.90;99.90;;;;;;4991065;28;20041;-69
2023/12/06 02:26:37;;;;;;;48.00;19.75;;;1.80;99.90;;;;;;4989541;28;20046;-69
2023/12/06 02:29:03;;;;;;;52.15;20.10;;;1.90;99.90;;;;;;4991375;28;20027;-69
2023/12/06 02:31:28;;;;;;;45.47;19.77;;;1.90;99.90;;;;;;4991548;28;20038;-69
2023/12/06 02:33:54;;;;;;;55.30;21.83;;;1.90;99.90;;;;;;4991941;28;20086;-68
2023/12/06 02:36:22;;;;;;;46.38;19.58;;;1.90;99.90;;;;;;5006466;28;20023;-70
2023/12/06 02:38:48;;;;;;;50.15;21.23;;;1.80;99.90;;;;;;4991973;28;20380;-66
2023/12/06 02:41:16;;;;;;;60.30;21.63;;;1.90;99.90;;;;;;4989690;28;20031;-66
2023/12/06 02:43:43;;;;;;;55.03;21.67;;;1.90;99.90;;;;;;4991799;28;20494;-68
2023/12/06 02:46:09;;;;;;;58.88;22.05;;;1.80;99.90;;;;;;4990727;28;20035;-66
2023/12/06 02:48:34;;;;;;;55.00;20.98;;;1.80;99.90;;;;;;5006102;28;20050;-68
2023/12/06 02:51:00;;;;;;;53.90;21.48;;;1.80;99.90;;;;;;4991705;28;20053;-68
2023/12/06 02:53:26;;;;;;;53.80;21.50;;;1.80;99.90;;;;;;4990738;28;20027;-67
2023/12/06 02:55:51;;;;;;;62.45;23.75;;;1.80;99.90;;;;;;4989985;28;20050;-68
2023/12/06 02:58:17;;;;;;;51.10;21.88;;;1.90;99.90;;;;;;4990206;28;20022;-69
2023/12/06 03:00:42;;;;;;;61.42;22.25;;;1.80;99.90;;;;;;4991467;28;20027;-68
2023/12/06 03:03:08;;;;;;;56.17;22.63;;;1.90;99.90;;;;;;4990604;28;20022;-67
2023/12/06 03:05:33;;;;;;;60.25;23.20;;;1.80;99.90;;;;;;4991142;28;20058;-68
2023/12/06 03:07:59;;;;;;;60.10;21.98;;;1.80;99.90;;;;;;4991303;28;20471;-68
2023/12/06 03:10:24;;;;;;;62.08;22.98;;;1.80;99.90;;;;;;4992166;28;20030;-69
2023/12/06 03:12:50;;;;;;;61.13;23.38;;;1.80;99.90;;;;;;4991093;28;20054;-68
2023/12/06 03:15:16;;;;;;;53.08;21.92;;;1.80;99.90;;;;;;4991674;28;20081;-67
2023/12/06 03:17:41;;;;;;;67.82;24.52;;;1.80;99.90;;;;;;4991217;28;20078;-68
2023/12/06 03:20:08;;;;;;;63.88;22.40;;;1.80;99.90;;;;;;4990474;28;20042;-68
2023/12/06 03:22:34;;;;;;;67.05;25.58;;;1.80;99.90;;;;;;4993422;28;20033;-68
2023/12/06 03:24:59;;;;;;;61.38;24.15;;;1.80;99.90;;;;;;4995614;28;20034;-70
2023/12/06 03:27:25;;;;;;;66.40;23.35;;;1.80;99.90;;;;;;4994652;28;20022;-69
2023/12/06 03:29:51;;;;;;;64.80;23.48;;;1.80;99.90;;;;;;4995139;28;20501;-69
2023/12/06 03:32:16;;;;;;;59.65;22.85;;;1.80;99.90;;;;;;4995422;28;20023;-70
2023/12/06 03:34:42;;;;;;;60.53;22.88;;;1.80;99.90;;;;;;4994856;28;20030;-70
2023/12/06 03:37:08;;;;;;;62.33;23.45;;;1.80;99.90;;;;;;4995068;28;20060;-71
2023/12/06 03:39:33;;;;;;;65.22;23.00;;;1.90;99.90;;;;;;4995772;28;20545;-71
2023/12/06 03:41:59;;;;;;;63.72;23.05;;;1.90;99.90;;;;;;4994379;28;20022;-73
2023/12/06 03:44:25;;;;;;;60.47;22.23;;;1.80;99.90;;;;;;4994171;28;20043;-70
2023/12/06 03:46:51;;;;;;;59.22;22.60;;;1.80;99.90;;;;;;4993129;28;20022;-74
2023/12/06 03:49:17;;;;;;;59.78;23.15;;;1.90;99.90;;;;;;4992714;28;20018;-70
2023/12/06 03:51:42;;;;;;;64.72;24.13;;;1.80;99.90;;;;;;4994417;28;20034;-70
2023/12/06 03:54:08;;;;;;;78.32;25.33;;;1.90;99.90;;;;;;4999977;28;20029;-71
2023/12/06 03:56:33;;;;;;;67.07;23.90;;;1.80;99.90;;;;;;4993918;28;20022;-71
2023/12/06 03:58:59;;;;;;;65.55;23.10;;;1.80;99.90;;;;;;5009458;28;20061;-71
2023/12/06 04:01:25;;;;;;;68.22;24.45;;;1.80;99.90;;;;;;4993791;28;20046;-70
2023/12/06 04:03:50;;;;;;;66.50;24.55;;;1.90;99.90;;;;;;4994288;28;20018;-69
2023/12/06 04:06:16;;;;;;;67.45;23.98;;;1.80;99.90;;;;;;4993960;28;20503;-72
2023/12/06 04:08:42;;;;;;;72.25;25.45;;;1.80;99.90;;;;;;4993889;28;20030;-71
2023/12/06 04:11:07;;;;;;;71.75;24.70;;;1.80;99.90;;;;;;4993524;28;20027;-72
2023/12/06 04:13:33;;;;;;;65.75;23.88;;;1.80;99.90;;;;;;5008740;28;20031;-71
2023/12/06 04:15:58;;;;;;;65.90;24.42;;;1.80;99.90;;;;;;4993928;28;20094;-71
2023/12/06 04:18:24;;;;;;;68.95;23.02;;;1.80;99.90;;;;;;5008609;28;20030;-70
2023/12/06 04:20:49;;;;;;;64.45;23.42;;;1.80;99.90;;;;;;4993678;28;20022;-70
2023/12/06 04:23:15;;;;;;;67.40;23.92;;;1.80;99.90;;;;;;5008893;28;20022;-71
2023/12/06 04:25:40;;;;;;;65.43;23.75;;;1.80;99.90;;;;;;4994435;28;20049;-70
2023/12/06 04:28:07;;;;;;;66.53;24.08;;;1.80;99.90;;;;;;5006386;28;20028;-70
2023/12/06 04:30:32;;;;;;;62.90;23.00;;;1.80;99.90;;;;;;4993707;28;20019;-70
2023/12/06 04:32:58;;;;;;;58.72;22.27;;;1.80;99.90;;;;;;4994065;28;20026;-69
2023/12/06 04:35:23;;;;;;;59.55;22.58;;;1.80;99.90;;;;;;4994172;28;20041;-71
2023/12/06 04:37:49;;;;;;;61.60;23.35;;;1.80;99.90;;;;;;5008887;28;20073;-71
2023/12/06 04:40:15;;;;;;;55.08;21.50;;;1.80;99.90;;;;;;4994009;28;20449;-69
2023/12/06 04:42:40;;;;;;;57.17;20.98;;;1.80;99.90;;;;;;4992902;28;20050;-70
2023/12/06 04:45:06;;;;;;;57.40;21.67;;;1.80;99.90;;;;;;4992594;28;20097;-69
2023/12/06 04:47:31;;;;;;;62.20;22.38;;;1.80;99.90;;;;;;4992839;28;20023;-69
2023/12/06 04:49:58;;;;;;;67.63;23.20;;;1.80;99.90;;;;;;4993780;28;20019;-70
2023/12/06 04:52:24;;;;;;;53.17;21.10;;;1.80;99.90;;;;;;4994024;28;20484;-69
2023/12/06 04:54:50;;;;;;;61.42;21.60;;;1.80;99.90;;;;;;4991270;28;20049;-69
2023/12/06 04:57:15;;;;;;;54.28;20.85;;;1.80;99.90;;;;;;4992719;28;20026;-69
2023/12/06 04:59:41;;;;;;;55.25;21.45;;;1.80;99.90;;;;;;4991803;28;20089;-70
2023/12/06 05:02:07;;;;;;;57.08;21.85;;;1.80;99.90;;;;;;4991049;28;21105;-68
2023/12/06 05:04:33;;;;;;;54.47;21.42;;;1.80;99.90;;;;;;4993010;28;20042;-69
2023/12/06 05:06:58;;;;;;;55.83;20.98;;;1.80;99.90;;;;;;4992987;28;20030;-68
2023/12/06 05:09:24;;;;;;;59.63;22.02;;;1.80;99.90;;;;;;4992540;28;20046;-70
2023/12/06 05:11:50;;;;;;;53.72;21.17;;;1.80;99.90;;;;;;4992393;28;20023;-69
2023/12/06 05:14:15;;;;;;;53.80;20.30;;;1.80;99.90;;;;;;4993303;28;20041;-68
2023/12/06 05:16:41;;;;;;;56.78;19.85;;;1.80;99.90;;;;;;4992936;28;20053;-69
2023/12/06 05:19:07;;;;;;;56.35;21.25;;;1.80;99.90;;;;;;4992880;28;20077;-70
2023/12/06 05:21:32;;;;;;;51.58;20.60;;;1.80;99.90;;;;;;4992736;28;20098;-69
2023/12/06 05:23:58;;;;;;;56.35;20.85;;;1.80;99.90;;;;;;4992585;28;20054;-70
2023/12/06 05:26:26;;;;;;;60.20;20.55;;;1.80;99.90;;;;;;4992298;28;20054;-69
2023/12/06 05:28:52;;;;;;;56.78;20.15;;;1.70;99.90;;;;;;5007918;28;20478;-70
2023/12/06 05:31:18;;;;;;;59.63;21.20;;;1.70;99.90;;;;;;4992785;28;20034;-69
2023/12/06 05:33:43;;;;;;;51.22;19.92;;;1.70;99.90;;;;;;4992555;28;20045;-69
2023/12/06 05:36:09;;;;;;;51.35;20.50;;;1.70;99.90;;;;;;4992520;28;20117;-68
2023/12/06 05:38:34;;;;;;;51.28;19.40;;;1.70;99.90;;;;;;4991688;28;20030;-70
2023/12/06 05:41:00;;;;;;;56.13;20.67;;;1.70;99.90;;;;;;4992574;28;20049;-69
2023/12/06 05:43:26;;;;;;;53.15;18.77;;;1.70;99.90;;;;;;4992464;28;20023;-69
2023/12/06 05:45:52;;;;;;;55.33;20.05;;;1.70;99.90;;;;;;5007639;28;20513;-69
2023/12/06 05:48:17;;;;;;;53.45;18.88;;;1.70;99.90;;;;;;4992056;28;20022;-70
2023/12/06 05:50:43;;;;;;;57.42;19.00;;;1.70;99.90;;;;;;4989406;28;20109;-68
2023/12/06 05:53:12;;;;;;;54.30;18.98;;;1.70;99.90;;;;;;4991398;28;20067;-69
2023/12/06 05:55:38;;;;;;;50.78;18.40;;;1.70;99.90;;;;;;4990340;28;20479;-68
2023/12/06 05:58:05;;;;;;;47.42;18.52;;;1.70;99.90;;;;;;4992162;28;20034;-70
2023/12/06 06:00:31;;;;;;;47.78;18.10;;;1.70;99.90;;;;;;4992489;28;20071;-68
2023/12/06 06:02:58;;;;;;;50.67;19.52;;;1.70;99.90;;;;;;4992691;28;20460;-69
2023/12/06 06:05:24;;;;;;;52.42;18.33;;;1.70;99.90;;;;;;4991738;28;20411;-69
2023/12/06 06:07:49;;;;;;;51.65;18.33;;;1.60;99.90;;;;;;4992253;28;20046;-68
2023/12/06 06:10:15;;;;;;;52.53;17.77;;;1.70;99.90;;;;;;4991824;28;20037;-68
2023/12/06 06:12:41;;;;;;;57.13;18.45;;;1.70;99.90;;;;;;4991832;28;20022;-67
2023/12/06 06:15:08;;;;;;;50.05;18.60;;;1.60;99.90;;;;;;4991432;28;20419;-68
2023/12/06 06:17:34;;;;;;;55.35;18.52;;;1.60;99.90;;;;;;4990996;28;20038;-69
2023/12/06 06:19:59;;;;;;;52.05;19.55;;;1.70;99.90;;;;;;4994911;28;20038;-68
2023/12/06 06:22:25;;;;;;;45.33;18.25;;;1.60;99.90;;;;;;4990964;28;20452;-68
2023/12/06 06:24:50;;;;;;;48.28;19.73;;;1.60;99.90;;;;;;4987392;28;20050;-69
2023/12/06 06:27:16;;;;;;;47.28;17.92;;;1.60;99.90;;;;;;4990321;28;20027;-69
2023/12/06 06:29:44;;;;;;;47.83;18.42;;;1.60;99.90;;;;;;4989210;28;20053;-69
2023/12/06 06:32:09;;;;;;;45.58;17.92;;;1.60;99.90;;;;;;4987157;28;20063;-67
2023/12/06 06:34:35;;;;;;;46.28;18.27;;;1.60;99.90;;;;;;4992026;28;20026;-67
2023/12/06 06:37:01;;;;;;;49.50;19.05;;;1.60;99.90;;;;;;4990850;28;20027;-68
2023/12/06 06:39:28;;;;;;;43.50;17.13;;;1.60;99.90;;;;;;4980080;28;20054;-69
2023/12/06 06:41:54;;;;;;;48.03;18.33;;;1.60;99.90;;;;;;4979463;28;20161;-69
2023/12/06 06:44:20;;;;;;;45.70;18.05;;;1.60;99.90;;;;;;4986478;28;20023;-69
2023/12/06 06:46:46;;;;;;;47.65;18.98;;;1.60;99.90;;;;;;4989053;28;20031;-71
2023/12/06 06:49:11;;;;;;;64.18;24.08;;;1.60;99.90;;;;;;4988327;28;20142;-69
2023/12/06 06:51:37;;;;;;;54.42;22.83;;;1.60;99.90;;;;;;4988461;28;20025;-70
2023/12/06 06:54:04;;;;;;;48.25;20.08;;;1.60;99.90;;;;;;4988827;28;20030;-70
2023/12/06 06:56:30;;;;;;;48.15;19.02;;;1.60;99.90;;;;;;4993067;28;20038;-68
2023/12/06 06:58:55;;;;;;;47.30;17.98;;;1.60;99.90;;;;;;4992381;28;20027;-69
2023/12/06 07:01:21;;;;;;;43.28;17.50;;;1.60;99.90;;;;;;4994188;28;20037;-67
2023/12/06 07:03:47;;;;;;;42.58;18.17;;;1.60;99.90;;;;;;4990922;28;20035;-69
2023/12/06 07:06:13;;;;;;;41.70;17.50;;;1.60;99.90;;;;;;4989651;28;20062;-67
2023/12/06 07:08:39;;;;;;;41.15;16.50;;;1.60;99.90;;;;;;4989812;28;20034;-68
2023/12/06 07:11:06;;;;;;;41.85;17.33;;;1.60;99.90;;;;;;5008829;28;20026;-67
2023/12/06 07:13:32;;;;;;;44.95;17.02;;;1.60;99.90;;;;;;4993669;28;20030;-68
2023/12/06 07:15:58;;;;;;;40.70;17.75;;;1.60;99.90;;;;;;4992796;28;20026;-70
2023/12/06 07:18:25;;;;;;;41.35;17.25;;;1.50;99.90;;;;;;5008508;28;20399;-69
2023/12/06 07:20:51;;;;;;;47.15;18.80;;;1.50;99.90;;;;;;4994851;28;20049;-68
2023/12/06 07:23:16;;;;;;;48.65;18.58;;;1.50;99.90;;;;;;4995356;28;20030;-66
2023/12/06 07:25:42;;;;;;;45.58;17.70;;;1.50;99.90;;;;;;4993712;28;20046;-70
2023/12/06 07:28:08;;;;;;;45.55;18.17;;;1.50;99.90;;;;;;4995274;28;20041;-68
2023/12/06 07:30:34;;;;;;;45.42;18.45;;;1.50;99.90;;;;;;4993491;28;20605;-68
2023/12/06 07:33:00;;;;;;;46.60;19.00;;;1.50;99.90;;;;;;4993873;28;20023;-68
2023/12/06 07:35:25;;;;;;;46.05;18.92;;;1.50;99.90;;;;;;4995147;28;20309;-69
2023/12/06 07:37:51;;;;;;;49.70;19.33;;;1.50;99.90;;;;;;4994334;28;20077;-67
2023/12/06 07:40:16;;;;;;;47.13;19.08;;;1.50;99.90;;;;;;4991243;28;20040;-68
2023/12/06 07:42:42;;;;;;;47.53;18.98;;;1.50;99.90;;;;;;4994373;28;20027;-68
2023/12/06 07:45:11;;;;;;;46.42;19.80;;;1.50;99.90;;;;;;4995105;28;20056;-66
2023/12/06 07:47:39;;;;;;;47.38;19.27;;;1.50;99.90;;;;;;4989212;28;20035;-69
2023/12/06 07:50:06;;;;;;;48.45;18.80;;;1.50;99.90;;;;;;4989059;28;20483;-68
2023/12/06 07:52:33;;;;;;;49.97;19.50;;;1.50;99.90;;;;;;4994530;28;20071;-68
2023/12/06 07:55:06;;;;;;;46.17;18.88;;;1.50;99.90;;;;;;4993699;28;20185;-69
2023/12/06 07:57:32;;;;;;;52.58;20.02;;;1.50;99.90;;;;;;4990556;28;20046;-67
2023/12/06 07:59:58;;;;;;;48.53;20.02;;;1.50;99.90;;;;;;4995216;28;20033;-66
2023/12/06 08:02:24;;;;;;;55.08;22.10;;;1.50;99.90;;;;;;4994328;28;20070;-67
2023/12/06 08:04:50;;;;;;;60.10;23.65;;;1.50;99.90;;;;;;4994379;28;20042;-68
2023/12/06 08:07:15;;;;;;;58.50;22.90;;;1.50;99.90;;;;;;4993598;28;20098;-67
2023/12/06 08:09:41;;;;;;;54.03;21.52;;;1.60;99.90;;;;;;4994661;28;20022;-65
2023/12/06 08:12:07;;;;;;;52.70;21.05;;;1.60;99.90;;;;;;4994517;28;20058;-67
2023/12/06 08:14:34;;;;;;;52.85;21.77;;;1.60;99.90;;;;;;4991158;28;20026;-67
2023/12/06 08:16:59;;;;;;;49.38;20.40;;;1.60;99.90;;;;;;4991687;28;20030;-69
2023/12/06 08:19:25;;;;;;;52.63;21.38;;;1.60;99.90;;;;;;4994528;28;20033;-67
2023/12/06 08:21:51;;;;;;;54.17;21.27;;;1.60;99.90;;;;;;4991224;28;20022;-66
2023/12/06 08:24:16;;;;;;;54.58;20.90;;;1.60;99.90;;;;;;4992523;28;20035;-68
2023/12/06 08:26:42;;;;;;;51.20;20.98;;;1.60;99.90;;;;;;4992619;28;20053;-67
2023/12/06 08:29:08;;;;;;;52.08;20.90;;;1.60;99.90;;;;;;4991865;28;20035;-67
2023/12/06 08:31:36;;;;;;;50.35;21.30;;;1.60;99.90;;;;;;4994440;28;20022;-68
2023/12/06 08:34:02;;;;;;;53.58;21.73;;;1.60;99.90;;;;;;4992552;28;20062;-66
2023/12/06 08:36:28;;;;;;;53.83;22.02;;;1.60;99.90;;;;;;4993760;28;20026;-69
2023/12/06 08:38:53;;;;;;;58.10;23.13;;;1.60;99.90;;;;;;4993889;28;20486;-69
2023/12/06 08:41:19;;;;;;;60.30;23.10;;;1.60;99.90;;;;;;4993592;28;20030;-66
2023/12/06 08:43:45;;;;;;;58.83;23.17;;;1.60;99.90;;;;;;4994020;28;20038;-68
2023/12/06 08:46:11;;;;;;;56.78;22.33;;;1.70;99.90;;;;;;4990016;28;20042;-68
2023/12/06 08:48:37;;;;;;;59.38;24.45;;;1.70;99.90;;;;;;4992850;28;20060;-67
2023/12/06 08:51:03;;;;;;;53.45;21.95;;;1.70;99.90;;;;;;4991451;28;20023;-68
2023/12/06 08:53:29;;;;;;;54.95;22.52;;;1.80;99.90;;;;;;4989854;28;20090;-68
2023/12/06 08:55:55;;;;;;;53.28;22.17;;;1.80;99.90;;;;;;4984485;28;20056;-67
2023/12/06 08:58:21;;;;;;;54.38;23.25;;;1.80;99.90;;;;;;4990637;28;20026;-68
2023/12/06 09:00:48;;;;;;;55.60;22.73;;;1.80;99.90;;;;;;4990576;28;20368;-71
2023/12/06 09:03:14;;;;;;;58.15;23.63;;;1.80;99.90;;;;;;4991375;28;20038;-68
2023/12/06 09:05:39;;;;;;;59.03;23.60;;;1.80;99.90;;;;;;4992318;28;20053;-67
2023/12/06 09:08:05;;;;;;;51.55;21.67;;;1.80;99.90;;;;;;4992242;28;20054;-69
2023/12/06 09:10:31;;;;;;;56.35;22.85;;;1.80;99.90;;;;;;4993194;28;20029;-68
2023/12/06 09:12:57;;;;;;;58.78;22.30;;;1.80;99.90;;;;;;4993215;28;20030;-66
2023/12/06 09:15:22;;;;;;;56.03;22.90;;;1.80;99.90;;;;;;4989009;28;20054;-68
2023/12/06 09:17:48;;;;;;;57.33;22.40;;;1.70;99.90;;;;;;4988416;28;20106;-67
2023/12/06 09:20:15;;;;;;;56.75;23.75;;;1.70;99.90;;;;;;4992446;28;21170;-70
2023/12/06 09:22:41;;;;;;;51.90;22.00;;;1.80;99.90;;;;;;4990811;28;20022;-68
2023/12/06 09:25:07;;;;;;;53.70;22.40;;;1.80;99.90;;;;;;4990231;28;20081;-70
2023/12/06 09:27:33;;;;;;;55.65;22.48;;;1.80;99.90;;;;;;4991395;28;20034;-68
2023/12/06 09:29:58;;;;;;;55.78;22.65;;;1.80;99.90;;;;;;4990271;28;20026;-69
2023/12/06 09:32:24;;;;;;;56.38;23.33;;;1.80;99.90;;;;;;4992717;28;20479;-69
2023/12/06 09:34:50;;;;;;;51.08;22.30;;;1.80;99.90;;;;;;4993098;28;20061;-69
2023/12/06 09:37:16;;;;;;;52.00;22.92;;;1.90;99.90;;;;;;4990063;28;20081;-67
2023/12/06 09:39:42;;;;;;;52.10;23.45;;;1.90;99.90;;;;;;4989870;28;20034;-69
2023/12/06 09:42:08;;;;;;;58.53;24.08;;;1.90;99.90;;;;;;4991956;28;20493;-68
2023/12/06 09:44:37;;;;;;;55.75;23.67;;;1.90;99.90;;;;;;4992720;28;20104;-68
2023/12/06 09:47:03;;;;;;;52.35;23.63;;;1.90;99.90;;;;;;4991830;28;20037;-69
2023/12/06 09:49:29;;;;;;;57.53;24.35;;;2.00;99.90;;;;;;4988862;28;20113;-70
2023/12/06 09:52:08;;;;;;;55.85;23.60;;;1.90;99.90;;;;;;5004804;28;20026;-68
2023/12/06 09:54:39;;;;;;;56.33;24.27;;;1.90;99.90;;;;;;4988758;28;20034;-67
2023/12/06 09:57:04;;;;;;;60.15;25.50;;;1.90;99.90;;;;;;4987370;28;20035;-70
2023/12/06 09:59:30;;;;;;;55.78;23.52;;;2.00;99.90;;;;;;4990822;28;20030;-70
2023/12/06 10:01:55;;;;;;;61.03;25.33;;;2.00;99.90;;;;;;4991476;28;20027;-70
2023/12/06 10:04:21;;;;;;;62.00;25.17;;;1.90;99.90;;;;;;4991070;28;20031;-69
2023/12/06 10:06:49;;;;;;;59.72;25.23;;;1.90;99.90;;;;;;4990231;28;20030;-67
2023/12/06 10:09:16;;;;;;;61.35;25.45;;;1.90;99.90;;;;;;4988867;28;20523;-69
2023/12/06 10:11:41;;;;;;;61.08;26.60;;;1.90;99.90;;;;;;4991591;28;20032;-70
2023/12/06 10:14:16;;;;;;;64.50;28.00;;;1.90;99.90;;;;;;4989380;28;20097;-69
2023/12/06 10:16:42;;;;;;;63.47;26.20;;;2.00;99.90;;;;;;4991913;28;20030;-68
2023/12/06 10:19:08;;;;;;;64.75;26.65;;;1.90;99.90;;;;;;4992631;28;20031;-69
2023/12/06 10:21:34;;;;;;;62.00;25.88;;;1.90;99.90;;;;;;4991682;28;20049;-67
2023/12/06 10:24:01;;;;;;;61.53;26.33;;;1.90;99.90;;;;;;4989672;28;20039;-67
2023/12/06 10:26:30;;;;;;;60.85;24.90;;;1.90;99.90;;;;;;4990804;28;20046;-68
2023/12/06 10:28:56;;;;;;;66.50;26.50;;;1.90;99.90;;;;;;4990380;28;20034;-69
2023/12/06 10:31:22;;;;;;;64.25;26.05;;;1.90;99.90;;;;;;4991657;28;20019;-68
2023/12/06 10:33:56;;;;;;;65.72;26.30;;;1.90;99.90;;;;;;4991711;28;20086;-67
2023/12/06 10:36:23;;;;;;;;;;;1.90;99.90;;;;;;4991991;28;20034;-68
2023/12/06 10:38:51;;;;;;;67.97;26.83;;;2.00;99.90;;;;;;4989728;28;19910;-67
2023/12/06 10:41:20;;;;;;;64.80;28.33;;;2.00;99.90;;;;;;4989016;28;20069;-67
2023/12/06 10:43:47;;;;;;;70.20;28.05;;;2.00;99.90;;;;;;4990652;28;20037;-69
2023/12/06 10:46:15;;;;;;;71.32;29.75;;;2.00;99.90;;;;;;4992161;28;20035;-66
2023/12/06 10:48:42;;;;;;;72.38;29.73;;;2.00;99.90;;;;;;4990075;28;20059;-66
2023/12/06 10:51:09;;;;;;;75.35;28.55;;;2.00;99.90;;;;;;4988455;28;20061;-67
2023/12/06 10:53:37;;;;;;;82.78;32.00;;;2.10;99.90;;;;;;4988138;28;20026;-65
2023/12/06 10:56:04;;;;;;;80.35;29.95;;;2.10;99.90;;;;;;4983132;28;20038;-70
2023/12/06 10:58:29;;;;;;;77.10;29.88;;;2.00;99.90;;;;;;4986515;28;20039;-67
2023/12/06 11:00:58;;;;;;;67.32;29.75;;;2.00;99.90;;;;;;4992178;28;20129;-68
2023/12/06 11:03:23;;;;;;;73.65;28.88;;;2.00;99.90;;;;;;4990259;28;20125;-70
2023/12/06 11:05:54;;;;;;;72.13;30.05;;;1.90;99.90;;;;;;4989618;28;20074;-71
2023/12/06 11:08:37;;;;;;;77.50;30.27;;;1.90;99.90;;;;;;4989226;28;20022;-67
2023/12/06 11:11:41;;;;;;;69.63;29.35;;;1.90;99.90;;;;;;4988398;28;20157;-68
2023/12/06 11:14:10;;;;;;;67.07;27.52;;;1.90;99.90;;;;;;4988221;28;20073;-69
2023/12/06 11:17:06;;;;;;;68.95;27.38;;;2.00;99.90;;;;;;4987843;28;20044;-67
2023/12/06 11:19:34;;;;;;;70.50;28.77;;;2.00;99.90;;;;;;4989727;28;20035;-68
2023/12/06 11:22:02;;;;;;;66.85;28.38;;;2.00;99.90;;;;;;4987995;28;20025;-67
2023/12/06 11:24:28;;;;;;;68.38;28.45;;;2.00;99.90;;;;;;4987988;28;20084;-68
2023/12/06 11:26:55;;;;;;;71.75;29.85;;;2.10;99.90;;;;;;4987010;28;20065;-68
2023/12/06 11:29:22;;;;;;;65.97;28.15;;;2.00;99.90;;;;;;4989810;28;20034;-69
2023/12/06 11:31:56;;;;;;;73.30;30.08;;;2.00;99.90;;;;;;4989098;28;20034;-68
2023/12/06 11:34:34;;;;;;;68.70;28.75;;;2.00;99.90;;;;;;4987716;28;20033;-67
2023/12/06 11:37:03;;;;;;;67.15;27.70;;;2.00;99.90;;;;;;4989518;28;20034;-68
2023/12/06 11:39:29;;;;;;;73.38;28.73;;;2.00;99.90;;;;;;4990192;28;20057;-68
2023/12/06 11:41:56;;;;;;;71.60;28.10;;;2.00;99.90;;;;;;4985098;28;20037;-70
2023/12/06 11:44:22;;;;;;;69.65;27.92;;;1.90;99.90;;;;;;4992190;28;20034;-69
2023/12/06 11:46:52;;;;;;;70.30;28.67;;;1.90;99.90;;;;;;4994426;28;20077;-69
2023/12/06 11:49:20;;;;;;;71.32;29.42;;;1.90;99.90;;;;;;4993916;28;20078;-69
2023/12/06 11:51:58;;;;;;;70.53;28.17;;;1.90;99.90;;;;;;4993274;28;20483;-67
2023/12/06 11:54:25;;;;;;;69.18;28.20;;;2.00;99.90;;;;;;4993745;28;20043;-69
2023/12/06 11:56:50;;;;;;;67.32;27.60;;;2.00;99.90;;;;;;4995116;28;20026;-69
2023/12/06 11:59:16;;;;;;;65.85;26.33;;;2.00;99.90;;;;;;4994728;28;20057;-68
2023/12/06 12:01:42;;;;;;;63.50;26.27;;;2.00;99.90;;;;;;4995288;28;20039;-69
2023/12/06 12:04:08;;;;;;;60.88;26.17;;;2.00;99.90;;;;;;4994786;28;20751;-68
2023/12/06 12:06:34;;;;;;;63.10;27.05;;;1.90;99.90;;;;;;4994077;28;20046;-67
2023/12/06 12:08:59;;;;;;;63.20;26.27;;;1.90;99.90;;;;;;4994690;28;20098;-68
2023/12/06 12:11:26;;;;;;;64.05;27.08;;;1.90;99.90;;;;;;4993665;28;20053;-68
2023/12/06 12:13:52;;;;;;;60.65;27.00;;;1.90;99.90;;;;;;4995045;28;20014;-68
2023/12/06 12:16:19;;;;;;;61.30;26.50;;;2.00;99.90;;;;;;4994897;28;20038;-67
2023/12/06 12:18:45;;;;;;;58.00;25.85;;;2.00;99.90;;;;;;4994286;28;20029;-66
2023/12/06 12:21:19;;;;;;;63.53;26.88;;;2.00;99.90;;;;;;4995043;28;20015;-67
2023/12/06 12:23:45;;;;;;;;;;;1.90;99.90;;;;;;4995541;28;20025;-67
2023/12/06 12:26:16;;;;;;;65.78;27.00;;;2.00;99.90;;;;;;4994125;28;19949;-67
2023/12/06 12:28:42;;;;;;;59.83;25.85;;;1.90;99.90;;;;;;4994236;28;20487;-67
2023/12/06 12:31:13;;;;;;;70.88;29.15;;;2.00;99.90;;;;;;4994487;28;20046;-65
2023/12/06 12:33:40;;;;;;;69.03;28.58;;;2.00;99.90;;;;;;4994257;28;20072;-66